Time;durP1;ratioP1;P1;durP2;ratioP2;P2;SDS_P1;SDS_P2;PMS_P1;PMS_P2;Temp;Humidity;BMP_temperature;BMP_pressure;BME280_temperature;BME280_humidity;BME280_pressure;Samples;Min_cycle;Max_cycle;Signal;HPM_P1;HPM_P2
2023/12/11 00:01:32;;;;;;;1.47;1.33;;;;;;;;;;5050710;28;20237;-79
2023/12/11 00:03:59;;;;;;;1.10;1.10;;;;;;;;;;5051455;28;20211;-80
2023/12/11 00:06:26;;;;;;;2.93;1.30;;;;;;;;;;5051138;28;20644;-80
2023/12/11 00:08:53;;;;;;;1.63;1.53;;;;;;;;;;5051729;28;20205;-80
2023/12/11 00:11:20;;;;;;;1.47;1.33;;;;;;;;;;5050835;28;20225;-79
2023/12/11 00:13:48;;;;;;;1.47;1.40;;;;;;;;;;5051609;28;20214;-80
2023/12/11 00:16:16;;;;;;;2.73;1.63;;;;;;;;;;5050637;28;20226;-80
2023/12/11 00:18:43;;;;;;;1.30;1.30;;;;;;;;;;5051496;28;20256;-79
2023/12/11 00:21:10;;;;;;;1.27;1.23;;;;;;;;;;5050614;28;20229;-79
2023/12/11 00:23:37;;;;;;;1.30;1.30;;;;;;;;;;5051459;28;20206;-79
2023/12/11 00:26:05;;;;;;;1.63;1.53;;;;;;;;;;5050820;28;20352;-79
2023/12/11 00:28:32;;;;;;;1.50;1.40;;;;;;;;;;5050992;28;20566;-79
2023/12/11 00:31:01;;;;;;;1.37;1.37;;;;;;;;;;5050581;28;20229;-80
2023/12/11 00:33:28;;;;;;;1.40;1.40;;;;;;;;;;5051341;28;20206;-79
2023/12/11 00:35:55;;;;;;;1.20;1.20;;;;;;;;;;5050638;28;20226;-79
2023/12/11 00:38:22;;;;;;;1.87;1.60;;;;;;;;;;5051225;28;20225;-80
2023/12/11 00:40:50;;;;;;;1.50;1.50;;;;;;;;;;5050694;28;20234;-80
2023/12/11 00:43:17;;;;;;;1.53;1.43;;;;;;;;;;5051141;28;20230;-79
2023/12/11 00:45:44;;;;;;;2.10;1.90;;;;;;;;;;5050595;28;20245;-79
2023/12/11 00:48:13;;;;;;;1.50;1.50;;;;;;;;;;5050759;28;20226;-79
2023/12/11 00:50:40;;;;;;;1.30;1.30;;;;;;;;;;5050774;28;20230;-79
2023/12/11 00:53:07;;;;;;;1.33;1.33;;;;;;;;;;5050943;28;20230;-79
2023/12/11 00:55:34;;;;;;;1.33;1.30;;;;;;;;;;5050360;28;20236;-80
2023/12/11 00:58:01;;;;;;;1.50;1.40;;;;;;;;;;5051196;28;20218;-79
2023/12/11 01:00:28;;;;;;;2.00;1.60;;;;;;;;;;5050250;28;20237;-79
2023/12/11 01:02:55;;;;;;;1.30;1.30;;;;;;;;;;5051100;28;20222;-79
2023/12/11 01:05:23;;;;;;;1.50;1.50;;;;;;;;;;5050293;28;20199;-79
2023/12/11 01:07:50;;;;;;;1.87;1.73;;;;;;;;;;5052191;28;20577;-80
2023/12/11 01:10:17;;;;;;;1.27;1.27;;;;;;;;;;5053953;28;20285;-79
2023/12/11 01:12:44;;;;;;;1.33;1.33;;;;;;;;;;5054710;28;20267;-79
2023/12/11 01:15:11;;;;;;;1.60;1.50;;;;;;;;;;5053912;28;20226;-80
2023/12/11 01:17:39;;;;;;;1.37;1.37;;;;;;;;;;5054304;28;20261;-79
2023/12/11 01:20:06;;;;;;;2.27;1.40;;;;;;;;;;5054203;28;20292;-80
2023/12/11 01:22:34;;;;;;;2.00;1.50;;;;;;;;;;5054157;28;20222;-79
2023/12/11 01:25:02;;;;;;;1.10;1.10;;;;;;;;;;5054300;28;20206;-79
2023/12/11 01:27:29;;;;;;;1.30;1.30;;;;;;;;;;5054207;28;20597;-80
2023/12/11 01:29:56;;;;;;;1.60;1.50;;;;;;;;;;5054502;28;20207;-79
2023/12/11 01:32:23;;;;;;;1.40;1.27;;;;;;;;;;5053725;28;20249;-79
2023/12/11 01:34:50;;;;;;;1.53;1.43;;;;;;;;;;5054492;28;20214;-80
2023/12/11 01:37:17;;;;;;;1.00;1.00;;;;;;;;;;5053772;28;20245;-80
2023/12/11 01:39:46;;;;;;;1.50;1.40;;;;;;;;;;5054421;28;20210;-79
2023/12/11 01:42:13;;;;;;;2.63;1.50;;;;;;;;;;5053683;28;20238;-79
2023/12/11 01:44:40;;;;;;;1.63;1.53;;;;;;;;;;5053896;28;20614;-79
2023/12/11 01:47:07;;;;;;;1.50;1.20;;;;;;;;;;5053776;28;20244;-79
2023/12/11 01:49:34;;;;;;;1.40;1.30;;;;;;;;;;5054230;28;20263;-79
2023/12/11 01:52:02;;;;;;;1.20;1.20;;;;;;;;;;5053608;28;20225;-79
2023/12/11 01:54:29;;;;;;;1.60;1.50;;;;;;;;;;5053688;28;20198;-79
2023/12/11 01:56:57;;;;;;;1.77;1.67;;;;;;;;;;5053375;28;20260;-79
2023/12/11 01:59:24;;;;;;;1.37;1.37;;;;;;;;;;5053785;28;20206;-79
2023/12/11 02:01:51;;;;;;;1.40;1.30;;;;;;;;;;5053083;28;20651;-80
2023/12/11 02:04:18;;;;;;;1.80;1.50;;;;;;;;;;5052979;28;20206;-79
2023/12/11 02:06:46;;;;;;;1.50;1.50;;;;;;;;;;5051433;28;20236;-79
2023/12/11 02:09:13;;;;;;;1.53;1.40;;;;;;;;;;5055628;28;20202;-79
2023/12/11 02:11:40;;;;;;;1.67;1.30;;;;;;;;;;5058619;28;20242;-79
2023/12/11 02:14:08;;;;;;;1.43;1.40;;;;;;;;;;5053583;28;20213;-79
2023/12/11 02:16:35;;;;;;;1.67;1.50;;;;;;;;;;5052939;28;20245;-79
2023/12/11 02:19:02;;;;;;;1.23;1.23;;;;;;;;;;5053073;28;20194;-79
2023/12/11 02:21:29;;;;;;;1.40;1.40;;;;;;;;;;5052757;28;20226;-79
2023/12/11 02:24:00;;;;;;;1.10;1.10;;;;;;;;;;5053341;28;20222;-79
2023/12/11 02:26:28;;;;;;;4.67;1.60;;;;;;;;;;5052768;28;20245;-79
2023/12/11 02:28:55;;;;;;;1.23;1.23;;;;;;;;;;5053026;28;20202;-79
2023/12/11 02:31:23;;;;;;;1.43;1.33;;;;;;;;;;5052672;28;20233;-79
2023/12/11 02:33:50;;;;;;;1.93;1.80;;;;;;;;;;5053185;28;20198;-79
2023/12/11 02:36:17;;;;;;;1.30;1.30;;;;;;;;;;5052290;28;20229;-78
2023/12/11 02:38:44;;;;;;;1.47;1.37;;;;;;;;;;5053055;28;20198;-79
2023/12/11 02:41:11;;;;;;;1.30;1.30;;;;;;;;;;5052170;28;20236;-79
2023/12/11 02:43:39;;;;;;;1.63;1.50;;;;;;;;;;5052644;28;20230;-78
2023/12/11 02:46:06;;;;;;;1.57;1.47;;;;;;;;;;5052535;28;20241;-78
2023/12/11 02:48:33;;;;;;;1.60;1.50;;;;;;;;;;5053048;28;20206;-78
2023/12/11 02:51:00;;;;;;;1.53;1.53;;;;;;;;;;5053563;28;20284;-78
2023/12/11 02:53:27;;;;;;;2.37;1.93;;;;;;;;;;5053704;28;20271;-78
2023/12/11 02:55:54;;;;;;;1.30;1.30;;;;;;;;;;5053056;28;20238;-79
2023/12/11 02:58:21;;;;;;;1.73;1.63;;;;;;;;;;5052493;28;20225;-79
2023/12/11 03:00:49;;;;;;;1.63;1.53;;;;;;;;;;5052222;28;20241;-79
2023/12/11 03:03:16;;;;;;;1.30;1.30;;;;;;;;;;5052792;28;20222;-79
2023/12/11 03:05:43;;;;;;;2.47;1.83;;;;;;;;;;5051802;28;20238;-79
2023/12/11 03:08:10;;;;;;;4.50;1.60;;;;;;;;;;5052724;28;20225;-79
2023/12/11 03:10:37;;;;;;;2.30;1.30;;;;;;;;;;5051523;28;20233;-79
2023/12/11 03:13:04;;;;;;;2.30;1.57;;;;;;;;;;5052267;28;20202;-79
2023/12/11 03:15:32;;;;;;;1.40;1.40;;;;;;;;;;5051633;28;20295;-79
2023/12/11 03:18:00;;;;;;;1.90;1.40;;;;;;;;;;5052635;28;20233;-79
2023/12/11 03:20:27;;;;;;;1.73;1.63;;;;;;;;;;5051626;28;20318;-79
2023/12/11 03:22:54;;;;;;;1.50;1.50;;;;;;;;;;5052343;28;20230;-79
2023/12/11 03:25:22;;;;;;;1.90;1.43;;;;;;;;;;5051745;28;20731;-79
2023/12/11 03:27:48;;;;;;;1.80;1.70;;;;;;;;;;5052479;28;20265;-79
2023/12/11 03:30:16;;;;;;;1.80;1.70;;;;;;;;;;5051140;28;20201;-79
2023/12/11 03:32:43;;;;;;;3.87;1.70;;;;;;;;;;5052290;28;20209;-79
2023/12/11 03:35:11;;;;;;;1.50;1.40;;;;;;;;;;5051631;28;20647;-79
2023/12/11 03:37:38;;;;;;;2.00;1.90;;;;;;;;;;5052117;28;20237;-78
2023/12/11 03:40:06;;;;;;;1.20;1.20;;;;;;;;;;5051490;28;20625;-79
2023/12/11 03:42:33;;;;;;;2.07;1.67;;;;;;;;;;5051687;28;20605;-79
2023/12/11 03:45:00;;;;;;;1.30;1.30;;;;;;;;;;5052093;28;20206;-78
2023/12/11 03:47:27;;;;;;;3.13;1.50;;;;;;;;;;5051456;28;20245;-79
2023/12/11 03:49:54;;;;;;;1.63;1.33;;;;;;;;;;5051883;28;20206;-78
2023/12/11 03:52:22;;;;;;;2.83;1.87;;;;;;;;;;5051421;28;20234;-78
2023/12/11 03:54:49;;;;;;;1.60;1.50;;;;;;;;;;5051877;28;20204;-78
2023/12/11 03:57:16;;;;;;;2.30;1.47;;;;;;;;;;5051305;28;20242;-78
2023/12/11 03:59:43;;;;;;;5.50;2.10;;;;;;;;;;5051708;28;20213;-78
2023/12/11 04:02:10;;;;;;;6.33;2.20;;;;;;;;;;5051255;28;20229;-78
2023/12/11 04:04:37;;;;;;;7.00;2.07;;;;;;;;;;5051697;28;20230;-78
2023/12/11 04:07:04;;;;;;;1.97;1.70;;;;;;;;;;5051156;28;20272;-78
2023/12/11 04:09:33;;;;;;;3.20;1.90;;;;;;;;;;5051612;28;20260;-78
2023/12/11 04:12:00;;;;;;;3.07;1.80;;;;;;;;;;5050903;28;20237;-78
2023/12/11 04:14:27;;;;;;;1.77;1.60;;;;;;;;;;5051076;28;20672;-78
2023/12/11 04:16:54;;;;;;;2.97;1.60;;;;;;;;;;5051059;28;20242;-78
2023/12/11 04:19:21;;;;;;;2.43;1.67;;;;;;;;;;5051174;28;20213;-78
2023/12/11 04:21:48;;;;;;;3.03;1.67;;;;;;;;;;5050786;28;20237;-78
2023/12/11 04:24:15;;;;;;;4.00;1.60;;;;;;;;;;5051147;28;20229;-78
2023/12/11 04:26:43;;;;;;;4.90;2.07;;;;;;;;;;5050573;28;20248;-78
2023/12/11 04:29:10;;;;;;;3.87;1.63;;;;;;;;;;5051393;28;20677;-78
2023/12/11 04:31:37;;;;;;;5.87;1.77;;;;;;;;;;5050597;28;20288;-79
2023/12/11 04:34:04;;;;;;;2.20;1.60;;;;;;;;;;5051257;28;20718;-79
2023/12/11 04:36:31;;;;;;;2.13;1.60;;;;;;;;;;5050501;28;20237;-79
2023/12/11 04:38:58;;;;;;;3.33;1.40;;;;;;;;;;5051302;28;20779;-78
2023/12/11 04:41:25;;;;;;;4.00;1.90;;;;;;;;;;5050727;28;20309;-78
2023/12/11 04:43:54;;;;;;;5.77;1.70;;;;;;;;;;5055002;28;20260;-78
2023/12/11 04:46:21;;;;;;;2.07;1.77;;;;;;;;;;5054469;28;20757;-78
2023/12/11 04:48:48;;;;;;;1.73;1.40;;;;;;;;;;5055226;28;20263;-78
2023/12/11 04:51:15;;;;;;;2.70;1.77;;;;;;;;;;5054444;28;20601;-78
2023/12/11 04:53:42;;;;;;;4.00;1.70;;;;;;;;;;5055053;28;20202;-78
2023/12/11 04:56:09;;;;;;;2.33;1.50;;;;;;;;;;5054389;28;20628;-79
2023/12/11 04:58:36;;;;;;;5.93;1.83;;;;;;;;;;5054745;28;20198;-78
2023/12/11 05:01:05;;;;;;;3.40;1.70;;;;;;;;;;5053459;28;22340;-78
2023/12/11 05:03:32;;;;;;;7.77;1.83;;;;;;;;;;5054681;28;20225;-78
2023/12/11 05:05:59;;;;;;;1.20;1.20;;;;;;;;;;5054530;28;20574;-78
2023/12/11 05:08:26;;;;;;;2.80;1.70;;;;;;;;;;5054626;28;20225;-78
2023/12/11 05:10:53;;;;;;;2.03;1.50;;;;;;;;;;5054075;28;20653;-78
2023/12/11 05:13:20;;;;;;;4.90;2.03;;;;;;;;;;5054265;28;20822;-78
2023/12/11 05:15:47;;;;;;;4.40;1.57;;;;;;;;;;5054162;28;20241;-79
2023/12/11 05:18:15;;;;;;;7.37;1.50;;;;;;;;;;5054664;28;20230;-79
2023/12/11 05:20:42;;;;;;;3.70;1.73;;;;;;;;;;5053838;28;20234;-79
2023/12/11 05:23:09;;;;;;;2.93;1.60;;;;;;;;;;5054607;28;20241;-79
2023/12/11 05:25:36;;;;;;;2.97;2.03;;;;;;;;;;5054011;28;20229;-79
2023/12/11 05:28:03;;;;;;;2.43;1.67;;;;;;;;;;5053683;28;20630;-79
2023/12/11 05:30:31;;;;;;;5.27;2.10;;;;;;;;;;5053407;28;20245;-79
2023/12/11 05:32:59;;;;;;;3.90;2.07;;;;;;;;;;5054320;28;20206;-80
2023/12/11 05:35:27;;;;;;;1.87;1.70;;;;;;;;;;5053916;28;20229;-79
2023/12/11 05:37:54;;;;;;;2.93;1.67;;;;;;;;;;5053651;28;20226;-80
2023/12/11 05:40:21;;;;;;;1.63;1.57;;;;;;;;;;5053481;28;20209;-79
2023/12/11 05:42:48;;;;;;;1.20;1.20;;;;;;;;;;5054231;28;20217;-79
2023/12/11 05:45:15;;;;;;;3.63;2.00;;;;;;;;;;5053798;28;20247;-78
2023/12/11 05:47:42;;;;;;;2.17;1.70;;;;;;;;;;5054048;28;20222;-79
2023/12/11 05:50:10;;;;;;;2.87;1.87;;;;;;;;;;5053482;28;20276;-79
2023/12/11 05:52:38;;;;;;;5.70;1.63;;;;;;;;;;5050772;28;20567;-79
2023/12/11 05:55:05;;;;;;;2.13;2.03;;;;;;;;;;5039045;28;20240;-79
2023/12/11 05:57:32;;;;;;;3.57;2.20;;;;;;;;;;5044699;28;20284;-79
2023/12/11 05:59:59;;;;;;;2.83;1.93;;;;;;;;;;5044152;28;20206;-78
2023/12/11 06:02:26;;;;;;;2.33;1.97;;;;;;;;;;5044153;28;20226;-79
2023/12/11 06:04:53;;;;;;;3.40;1.70;;;;;;;;;;5042979;28;20229;-78
2023/12/11 06:07:21;;;;;;;2.53;1.53;;;;;;;;;;5044773;28;20237;-79
2023/12/11 06:09:49;;;;;;;4.67;2.13;;;;;;;;;;5053575;28;20214;-78
2023/12/11 06:12:16;;;;;;;3.40;1.67;;;;;;;;;;5036080;28;20241;-76
2023/12/11 06:14:43;;;;;;;2.53;1.60;;;;;;;;;;5033811;28;20293;-77
2023/12/11 06:17:10;;;;;;;4.80;1.30;;;;;;;;;;5041068;28;20240;-77
2023/12/11 06:19:37;;;;;;;5.97;2.30;;;;;;;;;;5053345;28;20210;-77
2023/12/11 06:22:05;;;;;;;2.40;1.57;;;;;;;;;;5052862;28;20659;-77
2023/12/11 06:24:32;;;;;;;1.73;1.60;;;;;;;;;;5053498;28;20226;-77
2023/12/11 06:27:00;;;;;;;1.93;1.73;;;;;;;;;;5052829;28;20268;-77
2023/12/11 06:29:27;;;;;;;3.70;1.50;;;;;;;;;;5053309;28;20255;-77
2023/12/11 06:31:54;;;;;;;1.70;1.60;;;;;;;;;;5052358;28;20226;-77
2023/12/11 06:34:21;;;;;;;2.17;1.60;;;;;;;;;;5053265;28;20813;-77
2023/12/11 06:36:48;;;;;;;1.70;1.60;;;;;;;;;;5052631;28;20241;-76
2023/12/11 06:39:15;;;;;;;1.60;1.50;;;;;;;;;;5053298;28;20297;-77
2023/12/11 06:41:42;;;;;;;2.00;1.60;;;;;;;;;;5052462;28;20287;-77
2023/12/11 06:44:11;;;;;;;4.27;1.50;;;;;;;;;;5052805;28;20890;-76
2023/12/11 06:46:38;;;;;;;2.03;1.30;;;;;;;;;;5052383;28;20245;-78
2023/12/11 06:49:05;;;;;;;1.70;1.60;;;;;;;;;;5052939;28;20628;-77
2023/12/11 06:51:34;;;;;;;1.60;1.50;;;;;;;;;;5052467;28;20240;-77
2023/12/11 06:54:01;;;;;;;1.63;1.43;;;;;;;;;;5052722;28;20308;-78
2023/12/11 06:56:30;;;;;;;4.27;1.50;;;;;;;;;;5052239;28;20245;-77
2023/12/11 06:58:57;;;;;;;4.83;1.77;;;;;;;;;;5052632;28;20700;-77
2023/12/11 07:01:28;;;;;;;1.90;1.80;;;;;;;;;;5052226;28;20230;-77
2023/12/11 07:03:55;;;;;;;2.50;1.53;;;;;;;;;;5052539;28;20244;-77
2023/12/11 07:06:22;;;;;;;3.60;1.77;;;;;;;;;;5048320;28;20241;-77
2023/12/11 07:08:49;;;;;;;1.60;1.50;;;;;;;;;;5051338;28;20209;-77
2023/12/11 07:11:17;;;;;;;1.77;1.67;;;;;;;;;;5044356;28;20635;-77
2023/12/11 07:13:44;;;;;;;1.50;1.40;;;;;;;;;;5052668;28;20206;-77
2023/12/11 07:16:11;;;;;;;3.23;1.60;;;;;;;;;;5051519;28;20230;-77
2023/12/11 07:18:40;;;;;;;1.70;1.60;;;;;;;;;;5052147;28;20218;-77
2023/12/11 07:21:09;;;;;;;1.30;1.30;;;;;;;;;;5041563;28;20691;-77
2023/12/11 07:23:36;;;;;;;1.87;1.43;;;;;;;;;;5050818;28;20206;-77
2023/12/11 07:26:07;;;;;;;1.67;1.57;;;;;;;;;;5050959;28;20352;-77
2023/12/11 07:28:34;;;;;;;2.17;1.70;;;;;;;;;;5050797;28;20715;-76
2023/12/11 07:31:02;;;;;;;4.20;2.03;;;;;;;;;;5051454;28;20263;-77
2023/12/11 07:33:29;;;;;;;1.67;1.57;;;;;;;;;;5052143;28;20614;-76
2023/12/11 07:35:58;;;;;;;1.97;1.60;;;;;;;;;;5043331;28;20226;-77
2023/12/11 07:38:26;;;;;;;3.20;1.47;;;;;;;;;;5050939;28;20233;-78
2023/12/11 07:40:54;;;;;;;4.63;1.70;;;;;;;;;;5049826;28;20796;-77
2023/12/11 07:43:21;;;;;;;2.00;1.83;;;;;;;;;;5051544;28;20660;-78
2023/12/11 07:45:48;;;;;;;2.43;1.80;;;;;;;;;;5050626;28;20637;-77
2023/12/11 07:48:15;;;;;;;2.20;1.60;;;;;;;;;;5051134;28;20225;-78
2023/12/11 07:50:42;;;;;;;3.03;1.43;;;;;;;;;;5050014;28;20248;-78
2023/12/11 07:53:10;;;;;;;3.00;1.60;;;;;;;;;;5050660;28;20206;-78
2023/12/11 07:55:37;;;;;;;8.43;3.03;;;;;;;;;;5050381;28;20233;-78
2023/12/11 07:58:04;;;;;;;3.70;1.77;;;;;;;;;;5050798;28;20279;-78
2023/12/11 08:00:32;;;;;;;2.20;1.40;;;;;;;;;;5050082;28;20237;-78
2023/12/11 08:02:59;;;;;;;3.87;1.73;;;;;;;;;;5050164;28;20683;-78
2023/12/11 08:05:26;;;;;;;2.50;1.67;;;;;;;;;;5050294;28;20692;-78
2023/12/11 08:07:53;;;;;;;1.47;1.27;;;;;;;;;;5050352;28;20980;-78
2023/12/11 08:10:21;;;;;;;3.43;1.63;;;;;;;;;;5049974;28;20205;-79
2023/12/11 08:12:51;;;;;;;8.53;1.97;;;;;;;;;;5048712;28;20689;-78
2023/12/11 08:15:18;;;;;;;3.33;1.80;;;;;;;;;;5050080;28;20287;-79
2023/12/11 08:17:45;;;;;;;7.10;1.97;;;;;;;;;;5049997;28;20230;-78
2023/12/11 08:20:16;;;;;;;2.80;1.80;;;;;;;;;;5049667;28;20293;-78
2023/12/11 08:22:43;;;;;;;3.87;2.03;;;;;;;;;;5050031;28;20255;-78
2023/12/11 08:25:10;;;;;;;3.97;1.60;;;;;;;;;;5049866;28;20634;-80
2023/12/11 08:27:38;;;;;;;1.63;1.53;;;;;;;;;;5050175;28;20767;-77
2023/12/11 08:30:06;;;;;;;4.30;1.70;;;;;;;;;;5049334;28;20205;-76
2023/12/11 08:32:33;;;;;;;3.93;2.10;;;;;;;;;;5050062;28;20638;-77
2023/12/11 08:35:03;;;;;;;3.00;1.50;;;;;;;;;;5049764;28;20202;-76
2023/12/11 08:37:30;;;;;;;1.63;1.53;;;;;;;;;;5049793;28;20234;-77
2023/12/11 08:39:57;;;;;;;4.40;1.50;;;;;;;;;;5049542;28;20581;-77
2023/12/11 08:42:24;;;;;;;3.07;1.67;;;;;;;;;;5049337;28;20260;-77
2023/12/11 08:44:52;;;;;;;2.00;1.80;;;;;;;;;;5049384;28;20234;-76
2023/12/11 08:47:19;;;;;;;2.30;1.37;;;;;;;;;;5049484;28;20238;-77
2023/12/11 08:49:46;;;;;;;4.50;1.70;;;;;;;;;;5049361;28;20244;-78
2023/12/11 08:52:13;;;;;;;1.37;1.33;;;;;;;;;;5049431;28;20307;-78
2023/12/11 08:54:41;;;;;;;5.30;2.27;;;;;;;;;;5049609;28;20256;-77
2023/12/11 08:57:08;;;;;;;1.67;1.20;;;;;;;;;;5042433;28;20252;-77
2023/12/11 08:59:37;;;;;;;2.90;1.57;;;;;;;;;;5049919;28;20214;-77
2023/12/11 09:02:05;;;;;;;3.80;1.50;;;;;;;;;;5049183;28;20688;-77
2023/12/11 09:04:32;;;;;;;2.87;1.43;;;;;;;;;;5049514;28;20267;-77
2023/12/11 09:07:00;;;;;;;1.97;1.70;;;;;;;;;;5049148;28;20234;-77
2023/12/11 09:09:27;;;;;;;5.13;1.70;;;;;;;;;;5049891;28;20237;-77
2023/12/11 09:11:54;;;;;;;5.67;1.67;;;;;;;;;;5049038;28;20234;-77
2023/12/11 09:14:21;;;;;;;2.47;1.60;;;;;;;;;;5049479;28;20210;-77
2023/12/11 09:16:48;;;;;;;3.07;1.70;;;;;;;;;;5049110;28;20234;-77
2023/12/11 09:19:16;;;;;;;2.33;1.53;;;;;;;;;;5049897;28;20721;-79
2023/12/11 09:21:44;;;;;;;1.30;1.30;;;;;;;;;;5049003;28;20320;-77
2023/12/11 09:24:11;;;;;;;3.10;1.63;;;;;;;;;;5049229;28;20202;-79
2023/12/11 09:26:38;;;;;;;2.90;1.67;;;;;;;;;;5049144;28;20641;-78
2023/12/11 09:29:05;;;;;;;3.40;1.80;;;;;;;;;;5051925;28;20206;-78
2023/12/11 09:31:32;;;;;;;3.43;2.17;;;;;;;;;;5048353;28;20234;-79
2023/12/11 09:33:59;;;;;;;3.43;1.87;;;;;;;;;;5052768;28;20206;-78
2023/12/11 09:36:27;;;;;;;5.57;2.37;;;;;;;;;;5052811;28;20234;-80
2023/12/11 09:38:55;;;;;;;2.33;1.60;;;;;;;;;;5053181;28;20206;-77
2023/12/11 09:41:22;;;;;;;3.57;1.63;;;;;;;;;;5052597;28;20696;-79
2023/12/11 09:43:49;;;;;;;7.67;2.10;;;;;;;;;;5053271;28;20202;-79
2023/12/11 09:46:18;;;;;;;3.60;1.63;;;;;;;;;;5052324;28;20638;-78
2023/12/11 09:48:45;;;;;;;5.70;2.47;;;;;;;;;;5052964;28;20256;-79
2023/12/11 09:51:14;;;;;;;6.87;2.27;;;;;;;;;;5052481;28;20232;-78
2023/12/11 09:53:42;;;;;;;2.93;2.07;;;;;;;;;;5052419;28;20205;-78
2023/12/11 09:56:10;;;;;;;7.13;2.23;;;;;;;;;;5052183;28;20234;-77
2023/12/11 09:58:37;;;;;;;3.87;1.60;;;;;;;;;;5053450;28;20620;-78
2023/12/11 10:01:04;;;;;;;2.93;1.73;;;;;;;;;;5052115;28;20298;-78
2023/12/11 10:03:31;;;;;;;5.90;2.10;;;;;;;;;;5052619;28;20206;-78
2023/12/11 10:05:59;;;;;;;2.37;1.80;;;;;;;;;;5051602;28;20242;-78
2023/12/11 10:08:26;;;;;;;5.30;2.07;;;;;;;;;;5052615;28;20248;-78
2023/12/11 10:11:09;;;;;;;3.17;2.13;;;;;;;;;;5044945;28;20234;-78
2023/12/11 10:13:36;;;;;;;5.90;2.40;;;;;;;;;;5052471;28;20245;-78
2023/12/11 10:16:03;;;;;;;6.00;1.87;;;;;;;;;;5051358;28;20233;-80
2023/12/11 10:18:30;;;;;;;3.97;2.00;;;;;;;;;;5052610;28;20199;-78
2023/12/11 10:20:58;;;;;;;2.77;1.90;;;;;;;;;;5051641;28;20229;-78
2023/12/11 10:23:25;;;;;;;5.47;2.10;;;;;;;;;;5052246;28;20619;-78
2023/12/11 10:25:56;;;;;;;3.90;2.20;;;;;;;;;;5051170;28;20238;-78
2023/12/11 10:28:25;;;;;;;4.37;2.00;;;;;;;;;;5052342;28;20248;-79
2023/12/11 10:30:53;;;;;;;3.77;1.73;;;;;;;;;;5051210;28;20332;-78
2023/12/11 10:33:21;;;;;;;6.50;1.97;;;;;;;;;;5052016;28;20668;-78
2023/12/11 10:35:48;;;;;;;9.33;2.37;;;;;;;;;;5051225;28;20237;-78
2023/12/11 10:38:21;;;;;;;1.70;1.60;;;;;;;;;;5051944;28;20226;-79
2023/12/11 10:40:50;;;;;;;5.23;1.83;;;;;;;;;;5051356;28;20313;-79
2023/12/11 10:43:17;;;;;;;2.27;1.80;;;;;;;;;;5052108;28;20210;-78
2023/12/11 10:45:45;;;;;;;4.97;2.40;;;;;;;;;;5051049;28;20299;-78
2023/12/11 10:48:12;;;;;;;7.67;2.37;;;;;;;;;;5051582;28;20226;-78
2023/12/11 10:50:40;;;;;;;6.77;1.63;;;;;;;;;;5051360;28;20601;-78
2023/12/11 10:53:09;;;;;;;4.53;2.47;;;;;;;;;;5051734;28;20210;-78
2023/12/11 10:55:37;;;;;;;4.03;2.00;;;;;;;;;;5051031;28;20308;-78
2023/12/11 10:58:05;;;;;;;4.87;1.70;;;;;;;;;;5051416;28;20230;-79
2023/12/11 11:00:32;;;;;;;5.43;2.10;;;;;;;;;;5051249;28;20237;-78
2023/12/11 11:03:02;;;;;;;8.07;3.00;;;;;;;;;;5051494;28;20206;-78
2023/12/11 11:05:30;;;;;;;4.60;1.97;;;;;;;;;;5050912;28;20233;-78
2023/12/11 11:08:01;;;;;;;5.53;2.07;;;;;;;;;;5051178;28;20237;-78
2023/12/11 11:10:32;;;;;;;9.57;2.23;;;;;;;;;;5051029;28;20230;-78
2023/12/11 11:13:05;;;;;;;3.30;2.10;;;;;;;;;;5051317;28;20213;-78
2023/12/11 11:15:32;;;;;;;4.07;1.83;;;;;;;;;;5050781;28;20246;-78
2023/12/11 11:18:05;;;;;;;6.77;3.00;;;;;;;;;;5051003;28;20225;-78
2023/12/11 11:20:32;;;;;;;4.87;2.57;;;;;;;;;;5051435;28;20528;-78
2023/12/11 11:23:18;;;;;;;7.93;2.07;;;;;;;;;;5051076;28;20641;-78
2023/12/11 11:25:50;;;;;;;3.77;1.90;;;;;;;;;;5050535;28;20242;-78
2023/12/11 11:28:32;;;;;;;6.47;1.90;;;;;;;;;;5051101;28;20705;-78
2023/12/11 11:30:59;;;;;;;4.17;2.10;;;;;;;;;;5050309;28;20230;-78
2023/12/11 11:33:43;;;;;;;3.83;1.83;;;;;;;;;;5051259;28;20206;-78
2023/12/11 11:36:10;;;;;;;9.13;2.30;;;;;;;;;;5050230;28;20289;-78
2023/12/11 11:38:53;;;;;;;6.03;2.00;;;;;;;;;;5051019;28;20214;-78
2023/12/11 11:41:21;;;;;;;5.00;2.23;;;;;;;;;;5050513;28;20728;-78
2023/12/11 11:43:55;;;;;;;3.73;2.10;;;;;;;;;;5051118;28;20210;-78
2023/12/11 11:46:23;;;;;;;8.67;1.93;;;;;;;;;;5049963;28;20238;-78
2023/12/11 11:48:52;;;;;;;4.23;1.60;;;;;;;;;;5050736;28;20221;-79
2023/12/11 11:51:20;;;;;;;4.43;2.07;;;;;;;;;;5049703;28;20260;-78
2023/12/11 11:53:49;;;;;;;9.90;2.37;;;;;;;;;;5050836;28;20252;-78
2023/12/11 11:56:16;;;;;;;5.67;2.23;;;;;;;;;;5049674;28;20234;-78
2023/12/11 11:58:43;;;;;;;7.27;1.90;;;;;;;;;;5050565;28;20202;-77
2023/12/11 12:01:11;;;;;;;5.63;1.60;;;;;;;;;;5049913;28;20261;-77
2023/12/11 12:03:41;;;;;;;6.33;2.73;;;;;;;;;;5050820;28;20551;-77
2023/12/11 12:06:10;;;;;;;8.87;2.13;;;;;;;;;;5049939;28;20696;-76
2023/12/11 12:08:37;;;;;;;7.70;2.33;;;;;;;;;;5050566;28;20224;-76
2023/12/11 12:11:04;;;;;;;5.53;2.40;;;;;;;;;;5050380;28;20245;-77
2023/12/11 12:13:34;;;;;;;6.03;2.10;;;;;;;;;;5050607;28;20218;-76
2023/12/11 12:16:02;;;;;;;7.27;2.53;;;;;;;;;;5049823;28;20238;-75
2023/12/11 12:18:29;;;;;;;4.83;2.03;;;;;;;;;;5050676;28;20206;-77
2023/12/11 12:21:03;;;;;;;6.13;1.90;;;;;;;;;;5049600;28;20288;-77
2023/12/11 12:23:31;;;;;;;1.33;1.23;;;;;;;;;;5050369;28;20637;-78
2023/12/11 12:25:59;;;;;;;4.47;2.00;;;;;;;;;;5049615;28;20238;-77
2023/12/11 12:28:27;;;;;;;4.07;1.67;;;;;;;;;;5050013;28;20232;-77
2023/12/11 12:30:54;;;;;;;4.20;1.73;;;;;;;;;;5049547;28;20261;-78
2023/12/11 12:33:22;;;;;;;6.33;1.93;;;;;;;;;;5048906;28;20600;-77
2023/12/11 12:35:49;;;;;;;4.17;1.93;;;;;;;;;;5045422;28;20252;-78
2023/12/11 12:38:17;;;;;;;7.70;2.17;;;;;;;;;;5049898;28;20328;-77
2023/12/11 12:40:45;;;;;;;4.73;1.73;;;;;;;;;;5049462;28;20241;-78
2023/12/11 12:43:13;;;;;;;4.47;1.90;;;;;;;;;;5050002;28;20206;-77
2023/12/11 12:45:40;;;;;;;4.00;1.93;;;;;;;;;;5049705;28;20246;-77
2023/12/11 12:48:08;;;;;;;2.90;1.43;;;;;;;;;;5049450;28;20283;-78
2023/12/11 12:50:35;;;;;;;4.17;1.83;;;;;;;;;;5049559;28;20325;-78
2023/12/11 12:53:06;;;;;;;4.70;2.20;;;;;;;;;;5049952;28;20214;-77
2023/12/11 12:55:33;;;;;;;4.83;2.13;;;;;;;;;;5046843;28;20230;-77
2023/12/11 12:58:01;;;;;;;3.37;1.87;;;;;;;;;;5056812;28;20233;-77
2023/12/11 13:00:28;;;;;;;4.70;1.80;;;;;;;;;;5048428;28;20233;-77
2023/12/11 13:02:55;;;;;;;4.70;1.80;;;;;;;;;;5049608;28;20202;-77
2023/12/11 13:05:22;;;;;;;5.07;1.90;;;;;;;;;;5053450;28;20291;-78
2023/12/11 13:07:58;;;;;;;5.87;2.27;;;;;;;;;;5054324;28;20637;-77
2023/12/11 13:10:26;;;;;;;5.60;1.80;;;;;;;;;;5053197;28;20307;-81
2023/12/11 13:12:53;;;;;;;3.73;1.90;;;;;;;;;;5053936;28;20301;-81
2023/12/11 13:15:22;;;;;;;2.23;1.83;;;;;;;;;;5053773;28;20208;-81
2023/12/11 13:17:53;;;;;;;2.90;1.80;;;;;;;;;;5054065;28;20734;-82
2023/12/11 13:20:21;;;;;;;2.67;1.57;;;;;;;;;;5053337;28;20263;-81
2023/12/11 13:22:48;;;;;;;4.80;1.90;;;;;;;;;;5053426;28;20210;-81
2023/12/11 13:25:16;;;;;;;2.70;1.70;;;;;;;;;;5053332;28;20202;-82
2023/12/11 13:27:46;;;;;;;3.50;1.80;;;;;;;;;;5053927;28;20307;-81
2023/12/11 13:30:14;;;;;;;3.87;1.97;;;;;;;;;;5053194;28;20217;-81
2023/12/11 13:32:42;;;;;;;5.40;1.73;;;;;;;;;;5053666;28;20202;-82
2023/12/11 13:35:10;;;;;;;2.13;1.90;;;;;;;;;;5053028;28;20289;-81
2023/12/11 13:37:37;;;;;;;3.60;1.70;;;;;;;;;;5053641;28;20309;-82
2023/12/11 13:40:05;;;;;;;2.33;1.77;;;;;;;;;;5052986;28;20214;-81
2023/12/11 13:42:32;;;;;;;4.33;2.13;;;;;;;;;;5053460;28;20206;-82
2023/12/11 13:44:59;;;;;;;4.50;1.93;;;;;;;;;;5053591;28;20256;-82
2023/12/11 13:47:27;;;;;;;4.67;1.90;;;;;;;;;;5052719;28;20238;-81
2023/12/11 13:49:55;;;;;;;1.90;1.33;;;;;;;;;;5053336;28;20210;-81
2023/12/11 13:52:22;;;;;;;5.50;1.60;;;;;;;;;;5052650;28;20233;-81
2023/12/11 13:54:51;;;;;;;3.27;1.57;;;;;;;;;;5053405;28;20206;-81
2023/12/11 13:57:19;;;;;;;3.20;1.63;;;;;;;;;;5052851;28;20233;-81
2023/12/11 13:59:46;;;;;;;6.10;1.90;;;;;;;;;;5053033;28;20698;-81
2023/12/11 14:02:13;;;;;;;1.43;1.33;;;;;;;;;;5052345;28;20233;-82
2023/12/11 14:04:40;;;;;;;2.37;1.60;;;;;;;;;;5053113;28;20696;-82
2023/12/11 14:07:09;;;;;;;7.50;1.87;;;;;;;;;;5052582;28;20229;-81
2023/12/11 14:09:36;;;;;;;7.13;2.00;;;;;;;;;;5053025;28;20681;-81
2023/12/11 14:12:03;;;;;;;4.00;1.80;;;;;;;;;;5051835;28;20236;-81
2023/12/11 14:14:30;;;;;;;5.93;1.80;;;;;;;;;;5052439;28;20214;-82
2023/12/11 14:16:57;;;;;;;3.90;1.77;;;;;;;;;;5052449;28;20233;-82
2023/12/11 14:19:25;;;;;;;2.77;1.43;;;;;;;;;;5053034;28;20292;-81
2023/12/11 14:21:53;;;;;;;5.03;1.70;;;;;;;;;;5052196;28;20333;-81
2023/12/11 14:24:21;;;;;;;3.93;1.93;;;;;;;;;;5052542;28;20301;-82
2023/12/11 14:26:50;;;;;;;5.27;2.00;;;;;;;;;;5052304;28;20313;-81
2023/12/11 14:29:17;;;;;;;6.07;1.83;;;;;;;;;;5052508;28;20233;-82
2023/12/11 14:31:47;;;;;;;5.50;1.80;;;;;;;;;;5051973;28;20230;-81
2023/12/11 14:34:14;;;;;;;4.87;1.97;;;;;;;;;;5052668;28;20206;-81
2023/12/11 14:36:41;;;;;;;3.50;1.80;;;;;;;;;;5051859;28;20705;-81
2023/12/11 14:39:08;;;;;;;3.63;2.07;;;;;;;;;;5052507;28;20214;-81
2023/12/11 14:41:41;;;;;;;2.07;1.60;;;;;;;;;;5051754;28;20233;-81
2023/12/11 14:44:08;;;;;;;3.63;1.90;;;;;;;;;;5052503;28;20205;-81
2023/12/11 14:46:35;;;;;;;6.37;2.00;;;;;;;;;;5051799;28;20704;-81